Time;durP1;ratioP1;P1;durP2;ratioP2;P2;SDS_P1;SDS_P2;PMS_P1;PMS_P2;Temp;Humidity;BMP_temperature;BMP_pressure;BME280_temperature;BME280_humidity;BME280_pressure;Samples;Min_cycle;Max_cycle;Signal;HPM_P1;HPM_P2
2022/09/29 00:28:08;;;;;;;0.20;0.10;;;19.50;99.90;;;;;;25952078;23;20175;-68
2022/09/29 00:38:12;;;;;;;0.20;0.10;;;19.30;99.90;;;;;;25951816;23;20215;-68
2022/09/29 00:48:22;;;;;;;0.20;0.10;;;19.10;99.90;;;;;;25924720;23;20203;-68
2022/09/29 00:58:31;;;;;;;0.20;0.10;;;18.70;99.90;;;;;;25950706;23;20184;-69
2022/09/29 01:08:41;;;;;;;0.20;0.10;;;18.60;99.90;;;;;;25950368;23;20209;-68
2022/09/29 01:18:46;;;;;;;0.20;0.00;;;18.20;99.90;;;;;;25960397;22;20195;-68
2022/09/29 01:29:19;;;;;;;0.20;0.00;;;17.90;99.90;;;;;;26077036;22;20235;-68
2022/09/29 01:39:30;;;;;;;0.20;0.00;;;18.00;99.90;;;;;;26073773;22;20164;-69
2022/09/29 01:49:39;;;;;;;0.20;0.00;;;17.80;99.90;;;;;;26076592;22;20182;-69
2022/09/29 01:59:49;;;;;;;0.20;0.10;;;17.90;99.90;;;;;;26075902;22;20184;-68
2022/09/29 02:10:00;;;;;;;0.20;0.10;;;17.80;99.90;;;;;;26075480;22;20207;-69
2022/09/29 02:20:06;;;;;;;0.20;0.10;;;18.00;99.90;;;;;;26075199;22;20218;-68
2022/09/29 02:30:12;;;;;;;0.20;0.00;;;18.00;99.90;;;;;;26074726;22;20188;-68
2022/09/29 02:40:37;;;;;;;0.20;0.00;;;18.00;99.90;;;;;;26078222;22;20214;-68
2022/09/29 02:51:07;;;;;;;0.20;0.00;;;18.00;99.90;;;;;;26056580;22;20183;-69
2022/09/29 03:01:13;;;;;;;0.20;0.00;;;17.90;99.90;;;;;;26082199;22;20164;-68
2022/09/29 03:11:16;;;;;;;0.20;0.10;;;17.90;99.90;;;;;;26055660;22;20187;-68
2022/09/29 03:21:21;;;;;;;0.20;0.00;;;18.00;99.90;;;;;;26081709;22;20218;-70
2022/09/29 03:31:25;;;;;;;0.20;0.10;;;18.10;99.90;;;;;;26081160;22;20210;-69
2022/09/29 03:41:30;;;;;;;0.20;0.00;;;18.10;99.90;;;;;;26080347;22;20179;-69
2022/09/29 03:51:34;;;;;;;0.20;0.03;;;18.10;99.90;;;;;;26080410;22;20160;-69
2022/09/29 04:01:39;;;;;;;0.20;0.00;;;18.20;99.90;;;;;;26079939;22;20196;-69
2022/09/29 04:11:43;;;;;;;0.20;0.10;;;18.00;99.90;;;;;;26079376;22;20184;-69
2022/09/29 04:21:48;;;;;;;0.20;0.10;;;18.20;99.90;;;;;;26078620;22;20208;-69
2022/09/29 04:31:52;;;;;;;0.20;0.00;;;18.90;99.90;;;;;;26078969;22;20164;-68
2022/09/29 04:41:57;;;;;;;0.20;0.10;;;19.40;99.90;;;;;;26076304;22;20188;-68
2022/09/29 04:52:01;;;;;;;0.20;0.00;;;19.00;99.90;;;;;;26025755;22;20164;-68
2022/09/29 05:02:06;;;;;;;0.20;0.10;;;18.50;99.90;;;;;;26049955;22;20196;-67
2022/09/29 05:12:10;;;;;;;0.20;0.10;;;18.10;99.90;;;;;;26075464;22;20191;-69
2022/09/29 05:22:15;;;;;;;0.20;0.10;;;17.90;99.90;;;;;;26047225;22;20199;-68
2022/09/29 05:32:20;;;;;;;0.20;0.00;;;17.80;99.90;;;;;;26073854;22;20164;-69
2022/09/29 05:42:26;;;;;;;0.20;0.10;;;17.60;99.90;;;;;;26072505;22;20180;-67
2022/09/29 05:52:30;;;;;;;0.20;0.10;;;17.10;99.90;;;;;;26067672;22;20816;-68
2022/09/29 06:02:35;;;;;;;0.20;0.10;;;17.30;99.90;;;;;;26063655;22;20248;-68
2022/09/29 06:12:39;;;;;;;0.20;0.10;;;17.30;99.90;;;;;;26069244;22;20188;-68
2022/09/29 06:22:44;;;;;;;0.20;0.10;;;17.30;99.90;;;;;;26069903;22;20226;-70
2022/09/29 06:32:48;;;;;;;0.20;0.10;;;17.30;99.90;;;;;;26070364;22;20148;-68
2022/09/29 06:42:53;;;;;;;0.20;0.00;;;17.40;99.90;;;;;;26042850;22;20229;-68
2022/09/29 06:52:57;;;;;;;0.20;0.00;;;17.40;99.90;;;;;;26068708;22;20157;-67
2022/09/29 07:03:08;;;;;;;0.20;0.10;;;17.60;99.90;;;;;;26068511;22;20231;-69
2022/09/29 07:13:12;;;;;;;0.20;0.00;;;17.80;99.90;;;;;;26067957;22;20184;-69
2022/09/29 07:23:17;;;;;;;0.20;0.10;;;17.80;99.90;;;;;;26068479;22;20196;-69
2022/09/29 07:33:21;;;;;;;0.20;0.00;;;17.70;99.90;;;;;;26077513;22;20164;-68
2022/09/29 07:43:41;;;;;;;0.20;0.10;;;17.80;99.90;;;;;;26077779;22;20190;-68
2022/09/29 07:53:46;;;;;;;0.20;0.00;;;17.80;99.90;;;;;;26050683;22;20164;-68
2022/09/29 08:03:54;;;;;;;0.20;0.00;;;18.00;99.90;;;;;;26076602;22;20176;-68
2022/09/29 08:13:57;;;;;;;0.20;0.10;;;18.40;99.90;;;;;;26075528;22;20230;-68
2022/09/29 08:24:04;;;;;;;0.20;0.03;;;18.60;99.90;;;;;;26074588;22;20207;-68
2022/09/29 08:34:09;;;;;;;0.20;0.10;;;18.70;99.90;;;;;;26042890;22;20172;-69
2022/09/29 08:44:19;;;;;;;0.20;0.10;;;19.50;99.90;;;;;;26073329;22;20184;-69
2022/09/29 08:54:42;;;;;;;0.20;0.10;;;19.30;99.90;;;;;;26048973;22;20188;-68
2022/09/29 09:05:23;;;;;;;0.20;0.10;;;19.70;99.90;;;;;;26073374;22;20211;-68
2022/09/29 09:15:40;;;;;;;0.20;0.00;;;19.60;99.90;;;;;;26044953;22;20190;-69
2022/09/29 09:25:49;;;;;;;0.20;0.00;;;20.30;99.90;;;;;;26071959;22;20271;-69
2022/09/29 09:35:58;;;;;;;0.20;0.10;;;20.30;99.90;;;;;;26073589;22;20156;-69
2022/09/29 09:46:10;;;;;;;0.20;0.00;;;20.60;99.90;;;;;;26072377;22;20183;-69
2022/09/29 09:56:22;;;;;;;0.20;0.00;;;20.60;99.90;;;;;;26021331;22;20179;-69
2022/09/29 10:06:28;;;;;;;0.20;0.00;;;21.60;99.90;;;;;;26072648;22;20215;-68
2022/09/29 10:16:40;;;;;;;0.20;0.00;;;21.50;99.90;;;;;;26071961;22;20164;-68
2022/09/29 10:26:47;;;;;;;0.20;0.00;;;21.60;99.90;;;;;;25943096;23;20212;-68
2022/09/29 10:36:53;;;;;;;0.20;0.10;;;21.90;99.90;;;;;;25944461;23;20161;-68
2022/09/29 10:46:59;;;;;;;0.20;0.00;;;22.00;99.90;;;;;;25942841;22;20858;-67
2022/09/29 10:57:14;;;;;;;0.20;0.10;;;22.30;99.90;;;;;;25942553;23;20224;-68
2022/09/29 11:07:19;;;;;;;0.20;0.00;;;22.20;99.90;;;;;;25950037;23;20211;-66
2022/09/29 11:17:25;;;;;;;0.20;0.00;;;22.70;99.90;;;;;;25948542;23;20181;-68
2022/09/29 11:27:50;;;;;;;0.20;0.00;;;22.70;99.90;;;;;;25947816;23;20296;-67
2022/09/29 11:38:18;;;;;;;0.20;0.00;;;24.10;99.90;;;;;;25948387;23;20165;-68
2022/09/29 11:48:52;;;;;;;0.20;0.00;;;25.60;99.90;;;;;;25949946;22;20301;-68
2022/09/29 11:59:10;;;;;;;0.20;0.10;;;25.50;99.90;;;;;;25949253;22;20168;-68
2022/09/29 12:09:32;;;;;;;0.20;0.00;;;25.10;99.90;;;;;;25948371;23;20248;-68
2022/09/29 12:19:39;;;;;;;0.20;0.00;;;24.00;99.90;;;;;;25969785;22;20188;-67
2022/09/29 12:29:50;;;;;;;0.20;0.00;;;23.40;99.90;;;;;;26072854;22;20196;-65
2022/09/29 12:40:03;;;;;;;0.20;0.00;;;24.60;99.90;;;;;;26062963;22;20176;-69
2022/09/29 12:50:15;;;;;;;0.20;0.00;;;25.20;99.90;;;;;;26073367;22;20172;-69
2022/09/29 13:00:19;;;;;;;0.20;0.10;;;24.80;99.90;;;;;;26074524;22;20160;-66
2022/09/29 13:10:44;;;;;;;0.20;0.10;;;24.10;99.90;;;;;;26074520;22;20242;-68
2022/09/29 13:21:08;;;;;;;0.20;0.00;;;26.20;99.90;;;;;;26068543;22;20287;-67
2022/09/29 13:31:18;;;;;;;0.20;0.00;;;27.30;99.90;;;;;;26072442;22;20195;-69
2022/09/29 13:41:38;;;;;;;0.20;0.00;;;25.80;99.90;;;;;;26073668;22;20199;-68
2022/09/29 13:51:46;;;;;;;0.20;0.00;;;27.80;99.90;;;;;;26040082;22;20258;-69
2022/09/29 14:01:50;;;;;;;0.20;0.00;;;30.00;99.90;;;;;;26040492;22;20227;-69
2022/09/29 14:12:01;;;;;;;0.20;0.10;;;29.00;99.90;;;;;;26038022;22;20273;-68
2022/09/29 14:22:25;;;;;;;0.20;0.00;;;28.00;99.90;;;;;;26064656;22;20737;-67
2022/09/29 14:32:41;;;;;;;0.20;0.00;;;25.70;99.90;;;;;;26063119;22;20239;-67
2022/09/29 14:42:46;;;;;;;0.20;0.00;;;25.80;99.90;;;;;;26047227;22;20183;-68
2022/09/29 14:53:02;;;;;;;0.20;0.00;;;25.10;99.90;;;;;;26074418;22;20179;-68
2022/09/29 15:03:08;;;;;;;0.20;0.00;;;24.00;99.90;;;;;;26073243;22;20164;-67
2022/09/29 15:13:32;;;;;;;0.20;0.00;;;23.90;99.90;;;;;;26068069;22;20278;-68
2022/09/29 15:24:14;;;;;;;0.20;0.00;;;23.70;99.90;;;;;;26067195;22;20226;-69
2022/09/29 15:34:22;;;;;;;0.20;0.00;;;23.10;99.90;;;;;;26070063;22;20231;-69
2022/09/29 15:44:29;;;;;;;0.20;0.00;;;22.90;99.90;;;;;;26071040;22;20240;-66
2022/09/29 15:54:38;;;;;;;0.20;0.00;;;22.80;99.90;;;;;;26068872;22;20232;-68
2022/09/29 16:04:44;;;;;;;0.20;0.00;;;23.10;99.90;;;;;;26070583;22;20191;-68
2022/09/29 16:14:54;;;;;;;0.20;0.00;;;23.90;99.90;;;;;;26043240;22;20164;-68
2022/09/29 16:25:11;;;;;;;0.20;0.00;;;23.30;99.90;;;;;;26070906;22;20215;-68
2022/09/29 16:35:39;;;;;;;0.20;0.00;;;22.70;99.90;;;;;;26074014;22;20167;-69
2022/09/29 16:45:43;;;;;;;0.20;0.00;;;22.20;99.90;;;;;;26074129;22;20195;-68
2022/09/29 16:55:58;;;;;;;0.20;0.00;;;21.60;99.90;;;;;;26045501;22;20160;-67
2022/09/29 17:06:04;;;;;;;0.20;0.00;;;20.90;99.90;;;;;;26068855;22;20207;-68
2022/09/29 17:16:16;;;;;;;0.20;0.00;;;20.60;99.90;;;;;;26044579;22;20180;-68
2022/09/29 17:36:47;;;;;;;0.20;0.00;;;20.30;99.90;;;;;;26069221;22;20168;-67
2022/09/29 17:46:50;;;;;;;0.20;0.00;;;20.00;99.90;;;;;;26044092;22;20226;-69
2022/09/29 17:57:05;;;;;;;0.20;0.10;;;19.90;99.90;;;;;;26043212;22;20262;-66
2022/09/29 18:07:10;;;;;;;0.20;0.10;;;19.70;99.90;;;;;;26041289;22;20196;-68
2022/09/29 18:17:15;;;;;;;0.20;0.00;;;19.50;99.90;;;;;;26043198;22;20179;-67
2022/09/29 18:27:19;;;;;;;0.20;0.00;;;19.20;99.90;;;;;;26068955;22;20226;-69
2022/09/29 18:37:24;;;;;;;0.20;0.10;;;19.10;99.90;;;;;;26068569;22;20719;-67
2022/09/29 18:47:28;;;;;;;0.20;0.10;;;18.90;99.90;;;;;;26041660;22;20212;-70
2022/09/29 18:57:33;;;;;;;0.20;0.00;;;18.90;99.90;;;;;;26042369;22;20191;-69
2022/09/29 19:07:36;;;;;;;0.20;0.10;;;18.70;99.90;;;;;;26043530;22;20216;-67
2022/09/29 19:17:42;;;;;;;0.20;0.00;;;18.70;99.90;;;;;;26069664;22;20159;-67
2022/09/29 19:27:46;;;;;;;0.20;0.00;;;18.30;99.90;;;;;;26075629;22;20211;-68
2022/09/29 19:37:52;;;;;;;0.20;0.00;;;18.30;99.90;;;;;;26076602;22;20251;-67
2022/09/29 19:47:56;;;;;;;0.20;0.10;;;18.00;99.90;;;;;;26074393;22;20196;-68
2022/09/29 19:58:01;;;;;;;0.20;0.10;;;18.20;99.90;;;;;;26049142;22;20157;-68
2022/09/29 20:08:06;;;;;;;0.20;0.10;;;17.80;99.90;;;;;;26050658;22;20196;-68
2022/09/29 20:18:11;;;;;;;0.20;0.10;;;17.60;99.90;;;;;;26077873;22;20156;-68
2022/09/29 20:28:14;;;;;;;0.20;0.00;;;17.40;99.90;;;;;;26077267;22;20192;-68
2022/09/29 20:38:20;;;;;;;0.20;0.10;;;17.00;99.90;;;;;;26048536;22;20184;-67
2022/09/29 20:48:24;;;;;;;0.20;0.00;;;16.80;99.90;;;;;;26076321;22;20191;-67
2022/09/29 20:58:30;;;;;;;0.20;0.00;;;16.50;99.90;;;;;;26076797;22;20171;-67
2022/09/29 21:08:34;;;;;;;0.20;0.10;;;16.30;99.90;;;;;;26076555;22;20226;-67
2022/09/29 21:18:39;;;;;;;0.20;0.10;;;16.40;99.90;;;;;;26076193;22;20188;-68
2022/09/29 21:28:48;;;;;;;0.20;0.00;;;16.50;99.90;;;;;;26076055;22;20215;-69
2022/09/29 21:38:54;;;;;;;0.20;0.10;;;16.40;99.90;;;;;;26049328;22;20228;-69
2022/09/29 21:48:59;;;;;;;0.20;0.00;;;16.40;99.90;;;;;;26074950;22;20187;-68
2022/09/29 21:59:04;;;;;;;0.20;0.10;;;16.50;99.90;;;;;;26074405;22;20180;-68
2022/09/29 22:09:13;;;;;;;0.20;0.10;;;16.20;99.90;;;;;;26073126;22;20234;-68
2022/09/29 22:19:18;;;;;;;0.20;0.00;;;16.20;99.90;;;;;;26073769;22;20199;-67
2022/09/29 22:29:27;;;;;;;0.20;0.10;;;16.10;99.90;;;;;;26074405;22;20186;-68
2022/09/29 22:39:32;;;;;;;0.20;0.10;;;16.20;99.90;;;;;;26074358;22;20180;-67
2022/09/29 22:49:36;;;;;;;0.20;0.00;;;16.10;99.90;;;;;;26074034;22;20238;-67
2022/09/29 22:59:41;;;;;;;0.20;0.10;;;16.10;99.90;;;;;;26078986;22;20215;-67
2022/09/29 23:09:45;;;;;;;0.20;0.10;;;16.00;99.90;;;;;;26081784;22;20251;-68
2022/09/29 23:19:54;;;;;;;0.20;0.10;;;16.10;99.90;;;;;;26081362;22;20191;-69
2022/09/29 23:29:58;;;;;;;0.20;0.10;;;16.10;99.90;;;;;;26081681;22;20222;-69
2022/09/29 23:40:03;;;;;;;0.20;0.00;;;16.20;99.90;;;;;;26081601;22;20226;-68
2022/09/29 23:50:08;;;;;;;0.20;0.10;;;16.20;99.90;;;;;;26080532;22;20196;-67
